createdAt,value
2022-12-03T00:00:36.998Z,0.5
2022-12-03T00:05:48.227Z,0.6
2022-12-03T00:10:45.060Z,0.5
2022-12-03T00:15:49.667Z,0.5
2022-12-03T00:20:54.220Z,0.6
2022-12-03T00:25:57.679Z,0.6
2022-12-03T00:31:02.367Z,0.6
2022-12-03T00:36:06.802Z,0.5
2022-12-03T00:41:11.300Z,0.6
2022-12-03T00:46:19.865Z,0.6
2022-12-03T00:51:18.481Z,0.6
2022-12-03T00:56:22.941Z,0.7
2022-12-03T01:01:27.501Z,0.6
2022-12-03T01:06:31.032Z,0.6
2022-12-03T01:11:35.550Z,0.6
2022-12-03T01:16:40.117Z,0.7
2022-12-03T01:21:44.652Z,0.7
2022-12-03T01:26:48.189Z,0.7
2022-12-03T01:31:52.741Z,0.6
2022-12-03T01:36:57.311Z,0.6
2022-12-03T01:42:00.961Z,0.6
2022-12-03T01:47:05.385Z,0.5
2022-12-03T01:52:09.921Z,0.6
2022-12-03T01:57:13.450Z,0.6
2022-12-03T02:02:17.998Z,0.6
2022-12-03T02:07:22.589Z,0.7
2022-12-03T02:12:26.070Z,0.6
2022-12-03T02:17:30.575Z,0.6
2022-12-03T02:22:35.209Z,0.8
2022-12-03T02:27:39.663Z,0.7
2022-12-03T02:32:43.206Z,0.6
2022-12-03T02:37:47.758Z,0.7
2022-12-03T02:42:52.293Z,0.8
2022-12-03T02:47:55.857Z,0.6
2022-12-03T02:53:00.393Z,0.7
2022-12-03T02:58:04.893Z,0.7
2022-12-03T03:03:08.440Z,0.7
2022-12-03T03:08:13.179Z,0.6
2022-12-03T03:13:17.508Z,0.6
2022-12-03T03:18:21.053Z,0.6
2022-12-03T03:23:25.669Z,0.5
2022-12-03T03:28:30.186Z,0.7
2022-12-03T03:33:34.720Z,0.6
2022-12-03T03:38:38.295Z,0.5
2022-12-03T03:43:42.767Z,0.5
2022-12-03T03:48:47.331Z,0.5
2022-12-03T03:53:50.880Z,0.3
2022-12-03T03:58:55.394Z,0.4
2022-12-03T04:04:00.041Z,0.4
2022-12-03T04:09:03.513Z,0.3
2022-12-03T04:14:08.021Z,0.3
2022-12-03T04:19:12.557Z,0.3
2022-12-03T04:24:16.132Z,0.3
2022-12-03T04:29:20.626Z,0.4
2022-12-03T04:34:25.178Z,0.3
2022-12-03T04:39:29.795Z,0.2
2022-12-03T04:44:33.275Z,0.2
2022-12-03T04:49:37.828Z,0
2022-12-03T04:54:42.373Z,0.1
2022-12-03T04:59:45.879Z,0
2022-12-03T05:04:49.457Z,0
2022-12-03T05:09:53.985Z,0
2022-12-03T05:14:58.510Z,0.1
2022-12-03T05:20:03.040Z,0
2022-12-03T05:25:07.736Z,0
2022-12-03T05:30:12.210Z,0
2022-12-03T05:35:16.764Z,0
2022-12-03T05:40:21.460Z,0
2022-12-03T05:45:25.958Z,0
2022-12-03T05:50:30.486Z,0.1
2022-12-03T05:55:34.063Z,0
2022-12-03T06:00:42.755Z,0
2022-12-03T06:05:43.128Z,0
2022-12-03T06:10:46.710Z,0
2022-12-03T06:15:51.279Z,0.1
2022-12-03T06:20:55.778Z,0.1
2022-12-03T06:26:00.291Z,0.2
2022-12-03T06:31:03.902Z,0.1
2022-12-03T06:36:08.415Z,0.2
2022-12-03T06:41:12.903Z,0.3
2022-12-03T06:46:16.500Z,0.2
2022-12-03T06:51:21.043Z,0.4
2022-12-03T06:56:28.415Z,0.2
2022-12-03T07:01:29.144Z,0.2
2022-12-03T07:06:33.595Z,0.3
2022-12-03T07:11:38.192Z,0.2
2022-12-03T07:16:41.756Z,0.3
2022-12-03T07:21:46.242Z,0.4
2022-12-03T07:26:50.775Z,0.5
2022-12-03T07:31:55.389Z,0.4
2022-12-03T07:36:58.882Z,0.3
2022-12-03T07:42:03.428Z,0.4
2022-12-03T07:47:08.015Z,0.3
2022-12-03T07:52:11.499Z,0.2
2022-12-03T07:57:16.054Z,0.2
2022-12-03T08:02:21.813Z,0.3
2022-12-03T08:07:24.129Z,0.4
2022-12-03T08:12:28.666Z,0.2
2022-12-03T08:17:33.169Z,0.3
2022-12-03T08:22:37.849Z,0.3
2022-12-03T08:27:42.359Z,0.4
2022-12-03T08:32:46.908Z,0.3
2022-12-03T08:37:51.456Z,0.7
2022-12-03T08:42:55.016Z,0.4
2022-12-03T08:47:59.498Z,0.6
2022-12-03T08:53:04.078Z,0.5
2022-12-03T08:58:07.667Z,0.6
2022-12-03T09:03:12.122Z,0.5
2022-12-03T09:08:16.781Z,0.5
2022-12-03T09:13:20.242Z,0.5
2022-12-03T09:18:24.736Z,0.7
2022-12-03T09:23:28.282Z,0.6
2022-12-03T09:28:32.883Z,0.5
2022-12-03T09:33:37.359Z,0.6
2022-12-03T09:38:46.260Z,0.6
2022-12-03T09:44:03.803Z,0.6
2022-12-03T09:48:51.112Z,0.4
2022-12-03T09:53:54.645Z,0.5
2022-12-03T09:58:59.233Z,0.7
2022-12-03T10:04:03.839Z,0.3
2022-12-03T10:09:07.270Z,0.8
2022-12-03T10:14:11.824Z,0.6
2022-12-03T10:19:16.315Z,0.6
2022-12-03T10:24:20.867Z,0.5
2022-12-03T10:29:28.316Z,0.7
2022-12-03T10:34:28.973Z,0.8
2022-12-03T10:39:33.465Z,0.6
2022-12-03T10:44:37.075Z,0.4
2022-12-03T10:49:41.605Z,0.5
2022-12-03T10:54:46.138Z,0.5
2022-12-03T10:59:49.689Z,0.7
2022-12-03T11:04:54.427Z,0.5
2022-12-03T11:09:58.737Z,0.5
2022-12-03T11:15:02.311Z,0.4
2022-12-03T11:20:06.820Z,0.6
2022-12-03T11:25:11.366Z,0.6
2022-12-03T11:30:16.063Z,0.6
2022-12-03T11:35:19.455Z,0.9
2022-12-03T11:40:23.975Z,0.7
2022-12-03T11:45:28.546Z,0.7
2022-12-03T11:50:37.572Z,0.6
2022-12-03T11:55:36.612Z,0.7
2022-12-03T12:00:41.144Z,0.6
2022-12-03T12:05:44.654Z,0.6
2022-12-03T12:10:49.218Z,0.5
2022-12-03T12:15:53.875Z,0.7
2022-12-03T12:20:58.384Z,0.7
2022-12-03T12:26:02.948Z,0.8
2022-12-03T12:31:07.542Z,0.7
2022-12-03T12:36:12.030Z,0.7
2022-12-03T12:41:15.556Z,0.7
2022-12-03T12:46:46.474Z,1
2022-12-03T12:51:24.614Z,0.9
2022-12-03T12:56:28.175Z,0.7
2022-12-03T13:01:32.873Z,0.8
2022-12-03T13:06:37.241Z,0.8
2022-12-03T13:11:40.774Z,0.7
2022-12-03T13:16:45.519Z,0.9
2022-12-03T13:21:49.876Z,0.8
2022-12-03T13:26:53.462Z,0.9
2022-12-03T13:31:58.138Z,0.8
2022-12-03T13:37:01.496Z,0.8
2022-12-03T13:42:06.050Z,0.8
2022-12-03T13:47:10.594Z,0.8
2022-12-03T13:52:14.135Z,1
2022-12-03T13:57:18.672Z,0.9
2022-12-03T14:02:23.340Z,0.9
2022-12-03T14:07:26.788Z,0.9
2022-12-03T14:12:31.256Z,1
2022-12-03T14:17:36.052Z,1.1
2022-12-03T14:22:40.359Z,1
2022-12-03T14:27:43.878Z,0.9
2022-12-03T14:32:48.448Z,1
2022-12-03T14:37:52.993Z,0.8
2022-12-03T14:42:56.534Z,0.9
2022-12-03T14:48:01.061Z,1
2022-12-03T14:53:05.600Z,1
2022-12-03T14:58:09.152Z,0.9
2022-12-03T15:03:13.705Z,0.9
2022-12-03T15:08:18.326Z,1
2022-12-03T15:13:21.757Z,0.8
2022-12-03T15:18:26.377Z,0.9
2022-12-03T15:23:30.806Z,0.8
2022-12-03T15:28:35.367Z,0.9
2022-12-03T15:33:38.954Z,0.9
2022-12-03T15:38:43.463Z,0.9
2022-12-03T15:43:48.000Z,1
2022-12-03T15:48:51.585Z,0.9
2022-12-03T15:53:56.076Z,0.8
2022-12-03T15:59:00.602Z,0.9
2022-12-03T16:04:04.197Z,0.8
2022-12-03T16:09:08.687Z,0.8
2022-12-03T16:14:13.239Z,0.8
2022-12-03T16:19:17.781Z,0.8
2022-12-03T16:24:21.291Z,0.8
2022-12-03T16:29:25.856Z,0.8
2022-12-03T16:34:30.411Z,0.7
2022-12-03T16:39:33.958Z,0.8
2022-12-03T16:44:38.448Z,0.8
2022-12-03T16:49:43.003Z,0.8
2022-12-03T16:54:46.572Z,0.8
2022-12-03T16:59:51.297Z,0.7
2022-12-03T17:04:55.641Z,0.7
2022-12-03T17:09:59.171Z,0.8
2022-12-03T17:15:03.898Z,0.7
2022-12-03T17:20:08.280Z,0.7
2022-12-03T17:25:12.808Z,0.7
2022-12-03T17:30:16.321Z,0.7
2022-12-03T17:35:20.875Z,0.7
2022-12-03T17:40:25.420Z,0.6
2022-12-03T17:45:28.944Z,0.8
2022-12-03T17:50:32.519Z,0.6
2022-12-03T17:55:42.840Z,0.7
2022-12-03T18:00:41.567Z,0.7
2022-12-03T18:05:45.159Z,0.7
2022-12-03T18:10:49.657Z,0.6
2022-12-03T18:15:54.242Z,0.7
2022-12-03T18:20:58.779Z,0.7
2022-12-03T18:26:02.287Z,0.7
2022-12-03T18:31:06.906Z,0.7
2022-12-03T18:36:14.971Z,0.6
2022-12-03T18:41:16.043Z,0.6
2022-12-03T18:51:25.089Z,0.7
2022-12-03T18:56:29.745Z,0.6
2022-12-03T19:01:34.270Z,0.6
2022-12-03T19:06:38.864Z,0.6
2022-12-03T19:11:43.355Z,0.7
2022-12-03T19:16:46.963Z,0.8
2022-12-03T19:21:51.462Z,0.7
2022-12-03T19:26:55.963Z,0.7
2022-12-03T19:32:00.690Z,0.7
2022-12-03T19:37:05.195Z,0.7
2022-12-03T19:42:09.679Z,0.7
2022-12-03T19:47:13.256Z,0.8
2022-12-03T19:52:17.814Z,0.7
2022-12-03T19:57:23.640Z,0.7
2022-12-03T20:02:27.196Z,0.7
2022-12-03T20:07:31.632Z,0.6
2022-12-03T20:12:36.064Z,0.7
2022-12-03T20:17:40.608Z,0.6
2022-12-03T20:22:45.313Z,0.6
2022-12-03T20:27:49.778Z,0.7
2022-12-03T20:32:54.297Z,0.8
2022-12-03T20:37:57.900Z,0.7
2022-12-03T20:43:02.403Z,0.6
2022-12-03T20:48:06.938Z,0.7
2022-12-03T20:53:24.472Z,0.7
2022-12-03T20:58:15.003Z,0.6
2022-12-03T21:03:19.563Z,0.7
2022-12-03T21:08:40.186Z,0.6
2022-12-03T21:13:30.988Z,0.7
2022-12-03T21:18:32.195Z,0.8
2022-12-03T21:23:36.751Z,0.7
2022-12-03T21:28:40.240Z,0.8
2022-12-03T21:33:44.778Z,0.8
2022-12-03T21:38:49.583Z,0.7
2022-12-03T21:43:52.891Z,0.7
2022-12-03T21:48:57.427Z,0.7
2022-12-03T21:54:02.009Z,0.8
2022-12-03T21:59:05.499Z,0.7
2022-12-03T22:04:09.114Z,0.7
2022-12-03T22:09:13.669Z,0.6
2022-12-03T22:14:18.161Z,0.7
2022-12-03T22:19:22.646Z,0.7
2022-12-03T22:24:26.240Z,0.7
2022-12-03T22:29:30.760Z,0.7
2022-12-03T22:34:35.333Z,0.8
2022-12-03T22:39:38.877Z,0.7
2022-12-03T22:44:43.487Z,0.7
2022-12-03T22:49:47.889Z,0.6
2022-12-03T22:54:51.472Z,0.7
2022-12-03T22:59:56.422Z,0.7
2022-12-03T23:05:00.523Z,0.6
2022-12-03T23:10:04.123Z,0.7
2022-12-03T23:15:08.630Z,0.7
2022-12-03T23:20:13.190Z,0.7
2022-12-03T23:25:17.722Z,0.6
2022-12-03T23:30:21.251Z,0.6
2022-12-03T23:35:25.756Z,0.7
2022-12-03T23:40:30.352Z,0.6
2022-12-03T23:45:33.868Z,0.5
2022-12-03T23:50:38.390Z,0.6
2022-12-03T23:55:42.983Z,0.5
